createdAt,value
2018-05-06T00:01:50.019Z,45.86
2018-05-06T00:04:18.690Z,45.52
2018-05-06T00:06:46.889Z,45.72
2018-05-06T00:09:15.253Z,45.25
2018-05-06T00:11:43.843Z,45.51
2018-05-06T00:14:12.043Z,45.58
2018-05-06T00:16:40.355Z,45.78
2018-05-06T00:19:08.966Z,45.40
2018-05-06T00:21:37.152Z,45.61
2018-05-06T00:24:05.603Z,45.68
2018-05-06T00:26:34.180Z,45.37
2018-05-06T00:29:02.359Z,45.53
2018-05-06T00:31:30.790Z,45.50
2018-05-06T00:33:59.163Z,45.21
2018-05-06T00:36:27.383Z,44.76
2018-05-06T00:38:55.764Z,45.34
2018-05-06T00:41:24.411Z,45.69
2018-05-06T00:43:52.602Z,45.43
2018-05-06T00:46:21.033Z,45.62
2018-05-06T00:48:49.480Z,45.65
2018-05-06T00:51:17.726Z,45.19
2018-05-06T00:53:46.064Z,45.41
2018-05-06T00:56:14.766Z,45.76
2018-05-06T00:58:42.974Z,45.41
2018-05-06T01:01:11.201Z,45.65
2018-05-06T01:03:39.903Z,46.02
2018-05-06T01:06:08.120Z,46.42
2018-05-06T01:08:36.437Z,45.83
2018-05-06T01:11:05.053Z,46.11
2018-05-06T01:13:33.242Z,46.01
2018-05-06T01:16:01.624Z,46.26
2018-05-06T01:18:30.267Z,46.45
2018-05-06T01:20:58.525Z,46.49
2018-05-06T01:23:26.899Z,46.47
2018-05-06T01:25:55.421Z,47.01
2018-05-06T01:28:23.591Z,46.47
2018-05-06T01:30:52.016Z,46.91
2018-05-06T01:33:20.648Z,46.74
2018-05-06T01:35:48.826Z,47.14
2018-05-06T01:38:17.164Z,47.43
2018-05-06T01:40:46.050Z,47.30
2018-05-06T01:43:14.249Z,47.29
2018-05-06T01:45:42.438Z,47.16
2018-05-06T01:48:11.000Z,47.28
2018-05-06T01:50:39.209Z,47.15
2018-05-06T01:53:07.502Z,47.47
2018-05-06T01:55:36.239Z,47.32
2018-05-06T01:58:04.433Z,47.53
2018-05-06T02:00:32.686Z,47.71
2018-05-06T02:03:01.297Z,47.97
2018-05-06T02:05:29.491Z,47.71
2018-05-06T02:07:57.807Z,47.94
2018-05-06T02:10:26.437Z,48.10
2018-05-06T02:12:54.659Z,48.59
2018-05-06T02:15:23.026Z,48.55
2018-05-06T02:17:51.645Z,48.59
2018-05-06T02:20:19.891Z,48.34
2018-05-06T02:22:48.294Z,48.69
2018-05-06T02:25:16.890Z,49.19
2018-05-06T02:27:45.099Z,48.73
2018-05-06T02:30:13.449Z,48.88
2018-05-06T02:32:41.951Z,49.20
2018-05-06T02:35:10.182Z,49.15
2018-05-06T02:37:38.533Z,49.51
2018-05-06T02:40:07.221Z,49.77
2018-05-06T02:42:35.442Z,49.67
2018-05-06T02:45:03.844Z,49.82
2018-05-06T02:47:32.730Z,49.87
2018-05-06T02:50:00.947Z,50.13
2018-05-06T02:52:29.157Z,50.30
2018-05-06T02:54:57.946Z,50.00
2018-05-06T02:57:26.157Z,49.88
2018-05-06T02:59:54.366Z,50.13
2018-05-06T03:02:22.954Z,50.30
2018-05-06T03:04:51.172Z,50.04
2018-05-06T03:07:19.441Z,49.80
2018-05-06T03:09:48.094Z,49.92
2018-05-06T03:12:16.335Z,50.08
2018-05-06T03:14:44.546Z,50.27
2018-05-06T03:17:13.249Z,50.41
2018-05-06T03:19:41.456Z,50.80
2018-05-06T03:22:09.662Z,50.82
2018-05-06T03:24:38.160Z,50.74
2018-05-06T03:27:06.376Z,50.38
2018-05-06T03:29:34.753Z,50.81
2018-05-06T03:32:03.347Z,50.89
2018-05-06T03:34:31.546Z,50.56
2018-05-06T03:36:59.933Z,50.87
2018-05-06T03:39:28.542Z,50.96
2018-05-06T03:41:56.738Z,50.99
2018-05-06T03:44:25.228Z,51.27
2018-05-06T03:46:53.702Z,51.03
2018-05-06T03:49:21.893Z,51.14
2018-05-06T03:51:50.240Z,50.91
2018-05-06T03:54:18.813Z,51.01
2018-05-06T03:57:00.064Z,51.21
2018-05-06T03:59:40.152Z,51.33
2018-05-06T04:02:38.418Z,51.84
2018-05-06T04:05:06.599Z,52.03
2018-05-06T04:07:34.812Z,51.74
2018-05-06T04:10:03.506Z,52.09
2018-05-06T04:12:31.712Z,52.29
2018-05-06T04:14:59.941Z,51.98
2018-05-06T04:17:28.671Z,52.67
2018-05-06T04:19:56.852Z,52.73
2018-05-06T04:22:25.105Z,52.75
2018-05-06T04:24:53.845Z,52.86
2018-05-06T04:27:22.925Z,52.64
2018-05-06T04:29:51.116Z,52.87
2018-05-06T04:32:19.606Z,52.94
2018-05-06T04:34:47.810Z,52.93
2018-05-06T04:37:16.050Z,52.36
2018-05-06T04:39:44.631Z,52.42
2018-05-06T04:42:12.851Z,52.32
2018-05-06T04:44:41.290Z,52.54
2018-05-06T04:47:09.865Z,52.14
2018-05-06T04:49:38.084Z,52.47
2018-05-06T04:52:06.433Z,52.40
2018-05-06T04:54:34.976Z,52.33
2018-05-06T04:57:03.221Z,52.44
2018-05-06T04:59:31.485Z,52.41
2018-05-06T05:02:00.231Z,52.71
2018-05-06T05:04:28.431Z,52.79
2018-05-06T05:06:56.638Z,52.41
2018-05-06T05:09:25.365Z,52.20
2018-05-06T05:11:53.528Z,52.17
2018-05-06T05:14:21.893Z,52.29
2018-05-06T05:16:50.394Z,52.24
2018-05-06T05:19:18.620Z,52.15
2018-05-06T05:21:47.029Z,52.09
2018-05-06T05:24:15.540Z,52.11
2018-05-06T05:26:43.762Z,52.15
2018-05-06T05:29:12.153Z,51.90
2018-05-06T05:31:40.783Z,51.53
2018-05-06T05:34:26.196Z,51.56
2018-05-06T05:37:21.001Z,50.99
2018-05-06T05:39:52.764Z,50.99
2018-05-06T05:42:21.295Z,50.52
2018-05-06T05:44:49.510Z,50.25
2018-05-06T05:47:17.731Z,50.20
2018-05-06T05:49:46.508Z,50.03
2018-05-06T05:52:14.757Z,49.83
2018-05-06T05:54:42.960Z,50.05
2018-05-06T05:57:11.681Z,49.83
2018-05-06T05:59:39.996Z,48.40
2018-05-06T06:02:08.176Z,47.76
2018-05-06T06:04:36.880Z,46.56
2018-05-06T06:07:05.112Z,46.11
2018-05-06T06:09:33.318Z,45.98
2018-05-06T06:12:02.052Z,45.30
2018-05-06T06:14:30.286Z,45.14
2018-05-06T06:16:59.329Z,44.92
2018-05-06T06:19:27.576Z,44.35
2018-05-06T06:21:56.274Z,44.03
2018-05-06T06:24:24.488Z,43.72
2018-05-06T06:26:52.670Z,43.58
2018-05-06T06:29:21.365Z,42.90
2018-05-06T06:31:49.573Z,42.59
2018-05-06T06:34:17.823Z,42.22
2018-05-06T06:36:46.654Z,41.67
2018-05-06T06:39:14.834Z,40.90
2018-05-06T06:41:43.012Z,40.75
2018-05-06T06:44:11.826Z,40.49
2018-05-06T06:46:40.005Z,40.04
2018-05-06T06:49:08.219Z,40.17
2018-05-06T06:51:36.961Z,40.40
2018-05-06T06:54:05.163Z,39.80
2018-05-06T06:56:33.346Z,39.30
2018-05-06T06:59:02.082Z,39.21
2018-05-06T07:01:30.264Z,38.80
2018-05-06T07:03:58.510Z,38.60
2018-05-06T07:06:27.256Z,38.56
2018-05-06T07:08:55.434Z,38.67
2018-05-06T07:11:23.885Z,37.90
2018-05-06T07:13:52.466Z,37.82
2018-05-06T07:16:20.677Z,37.76
2018-05-06T07:18:49.084Z,37.45
2018-05-06T07:21:17.758Z,36.72
2018-05-06T07:23:45.955Z,37.18
2018-05-06T07:26:14.199Z,36.66
2018-05-06T07:28:42.845Z,36.08
2018-05-06T07:31:11.052Z,36.31
2018-05-06T07:33:39.287Z,35.69
2018-05-06T07:36:08.157Z,35.90
2018-05-06T07:38:36.373Z,35.82
2018-05-06T07:41:04.572Z,35.42
2018-05-06T07:43:33.285Z,34.83
2018-05-06T07:46:01.494Z,34.85
2018-05-06T07:48:29.710Z,34.50
2018-05-06T07:50:58.303Z,34.50
2018-05-06T07:53:26.516Z,34.58
2018-05-06T07:55:54.713Z,34.93
2018-05-06T07:58:23.439Z,35.08
2018-05-06T08:00:51.624Z,34.69
2018-05-06T08:03:20.014Z,34.87
2018-05-06T08:05:48.739Z,34.70
2018-05-06T08:08:16.939Z,35.09
2018-05-06T08:10:45.160Z,33.97
2018-05-06T08:13:13.843Z,33.71
2018-05-06T08:15:42.042Z,33.77
2018-05-06T08:20:44.869Z,33.64
2018-05-06T08:23:13.112Z,33.40
2018-05-06T08:25:41.274Z,33.08
2018-05-06T08:28:09.716Z,32.90
2018-05-06T08:30:37.911Z,32.00
2018-05-06T08:33:06.281Z,31.47
2018-05-06T08:35:34.828Z,31.42
2018-05-06T08:38:03.060Z,31.41
2018-05-06T08:40:31.362Z,31.31
2018-05-06T08:42:59.998Z,31.30
2018-05-06T08:45:28.195Z,31.67
2018-05-06T08:47:56.660Z,31.76
2018-05-06T08:50:25.222Z,32.19
2018-05-06T08:52:53.541Z,31.66
2018-05-06T08:55:21.702Z,30.90
2018-05-06T08:57:50.376Z,31.33
2018-05-06T09:00:18.597Z,30.59
2018-05-06T09:02:46.979Z,30.74
2018-05-06T09:05:15.500Z,31.64
2018-05-06T09:07:43.757Z,30.76
2018-05-06T09:10:12.165Z,30.92
2018-05-06T09:12:40.746Z,30.65
2018-05-06T09:15:08.939Z,30.41
2018-05-06T09:17:37.340Z,30.54
2018-05-06T09:20:05.959Z,30.44
2018-05-06T09:22:34.195Z,30.58
2018-05-06T09:25:02.686Z,30.39
2018-05-06T09:27:31.514Z,30.64
2018-05-06T09:29:59.743Z,30.58
2018-05-06T09:32:28.815Z,30.74
2018-05-06T09:34:57.005Z,30.83
2018-05-06T09:37:25.764Z,30.52
2018-05-06T09:39:53.953Z,30.61
2018-05-06T09:42:22.158Z,30.64
2018-05-06T09:44:50.805Z,30.42
2018-05-06T09:47:19.948Z,29.87
2018-05-06T09:49:48.146Z,29.86
2018-05-06T09:52:17.445Z,30.07
2018-05-06T09:54:46.161Z,29.74
2018-05-06T09:57:14.374Z,29.53
2018-05-06T09:59:43.194Z,28.97
2018-05-06T10:02:11.828Z,29.01
2018-05-06T10:04:40.068Z,28.09
2018-05-06T10:07:09.412Z,28.63
2018-05-06T10:09:37.698Z,29.29
2018-05-06T10:12:06.523Z,30.01
2018-05-06T10:14:34.729Z,29.27
2018-05-06T10:17:03.120Z,28.92
2018-05-06T10:19:31.515Z,29.53
2018-05-06T10:22:01.579Z,29.49
2018-05-06T10:24:29.755Z,29.23
2018-05-06T10:26:57.961Z,28.46
2018-05-06T10:29:28.223Z,27.06
2018-05-06T10:31:57.427Z,27.52
2018-05-06T10:34:25.623Z,27.22
2018-05-06T10:36:54.148Z,26.91
2018-05-06T10:39:22.936Z,26.79
2018-05-06T10:41:51.174Z,26.34
2018-05-06T10:44:19.416Z,25.98
2018-05-06T10:46:47.904Z,25.44
2018-05-06T10:49:16.161Z,26.74
2018-05-06T10:51:44.463Z,25.84
2018-05-06T10:54:12.971Z,24.49
2018-05-06T10:56:41.187Z,27.67
2018-05-06T10:59:09.509Z,25.36
2018-05-06T11:01:38.282Z,24.46
2018-05-06T11:04:06.557Z,23.61
2018-05-06T11:06:34.844Z,23.10
2018-05-06T11:09:03.379Z,22.84
2018-05-06T11:11:31.571Z,21.69
2018-05-06T11:13:59.752Z,21.78
2018-05-06T11:16:28.376Z,22.28
2018-05-06T11:18:56.596Z,21.79
2018-05-06T11:21:24.993Z,21.27
2018-05-06T11:23:53.578Z,21.20
2018-05-06T11:26:21.859Z,21.08
2018-05-06T11:28:50.055Z,21.18
2018-05-06T11:31:18.737Z,20.97
2018-05-06T11:33:46.966Z,20.94
2018-05-06T11:36:16.130Z,20.82
2018-05-06T11:38:44.667Z,19.98
2018-05-06T11:41:12.916Z,20.22
2018-05-06T11:43:41.127Z,20.78
2018-05-06T11:46:09.590Z,20.05
2018-05-06T11:48:37.786Z,19.22
2018-05-06T11:51:06.015Z,18.89
2018-05-06T11:53:34.743Z,18.10
2018-05-06T11:56:02.984Z,17.09
2018-05-06T11:58:31.171Z,16.24
2018-05-06T12:00:59.688Z,15.88
2018-05-06T12:03:27.923Z,16.08
2018-05-06T12:05:56.154Z,15.65
2018-05-06T12:08:24.700Z,15.40
2018-05-06T12:10:52.900Z,15.53
2018-05-06T12:13:21.352Z,15.75
2018-05-06T12:15:50.271Z,14.75
2018-05-06T12:18:18.517Z,14.65
2018-05-06T12:20:47.299Z,14.29
2018-05-06T12:23:15.877Z,14.17
2018-05-06T12:25:44.107Z,13.77
2018-05-06T12:28:12.442Z,13.66
2018-05-06T12:30:41.018Z,14.22
2018-05-06T12:33:09.369Z,14.69
2018-05-06T12:35:37.664Z,14.18
2018-05-06T12:38:06.228Z,13.86
2018-05-06T12:40:34.476Z,13.43
2018-05-06T12:43:03.110Z,13.08
2018-05-06T12:45:33.202Z,13.21
2018-05-06T12:48:01.736Z,12.29
2018-05-06T12:50:29.959Z,12.58
2018-05-06T12:52:59.018Z,12.63
2018-05-06T12:55:27.914Z,13.04
2018-05-06T12:57:56.165Z,13.16
2018-05-06T13:00:24.561Z,13.17
2018-05-06T13:02:53.454Z,13.56
2018-05-06T13:05:21.767Z,14.13
2018-05-06T13:07:49.980Z,14.07
2018-05-06T13:10:18.880Z,14.53
2018-05-06T13:12:47.559Z,14.82
2018-05-06T13:15:15.738Z,15.40
2018-05-06T13:17:44.895Z,14.73
2018-05-06T13:20:13.734Z,15.04
2018-05-06T13:22:41.989Z,14.84
2018-05-06T13:25:10.239Z,15.27
2018-05-06T13:27:39.283Z,15.19
2018-05-06T13:30:07.944Z,15.16
2018-05-06T13:32:36.244Z,14.94
2018-05-06T13:35:05.177Z,15.16
2018-05-06T13:37:34.090Z,14.95
2018-05-06T13:40:02.317Z,14.52
2018-05-06T13:42:30.563Z,15.33
2018-05-06T13:44:59.364Z,15.13
2018-05-06T13:47:28.369Z,15.36
2018-05-06T13:49:56.682Z,14.85
2018-05-06T13:52:25.534Z,15.04
2018-05-06T13:54:54.118Z,15.03
2018-05-06T13:57:22.337Z,14.85
2018-05-06T13:59:50.921Z,15.03
2018-05-06T14:02:20.513Z,14.30
2018-05-06T14:04:49.390Z,14.21
2018-05-06T14:07:17.646Z,14.74
2018-05-06T14:09:46.022Z,15.21
2018-05-06T14:12:14.616Z,15.07
2018-05-06T14:14:42.956Z,15.08
2018-05-06T14:17:11.427Z,15.15
2018-05-06T14:19:40.196Z,15.39
2018-05-06T14:22:09.163Z,15.46
2018-05-06T14:24:37.443Z,15.10
2018-05-06T14:27:06.311Z,16.07
2018-05-06T14:29:35.270Z,15.37
2018-05-06T14:32:03.546Z,15.34
2018-05-06T14:34:31.771Z,15.49
2018-05-06T14:37:00.414Z,15.12
2018-05-06T14:39:30.499Z,14.95
2018-05-06T14:41:59.649Z,15.91
2018-05-06T14:44:27.986Z,15.23
2018-05-06T14:50:02.366Z,15.45
2018-05-06T14:52:31.195Z,14.78
2018-05-06T14:55:00.410Z,15.21
2018-05-06T14:57:28.658Z,15.36
2018-05-06T14:59:57.666Z,16.07
2018-05-06T15:02:26.392Z,16.41
2018-05-06T15:04:54.996Z,16.21
2018-05-06T15:07:23.218Z,16.34
2018-05-06T15:09:51.451Z,17.08
2018-05-06T15:12:20.251Z,17.46
2018-05-06T15:14:48.458Z,17.76
2018-05-06T15:17:17.422Z,18.35
2018-05-06T15:19:46.338Z,18.72
2018-05-06T15:22:14.569Z,19.04
2018-05-06T15:24:42.766Z,19.11
2018-05-06T15:27:11.390Z,19.26
2018-05-06T15:29:39.681Z,19.52
2018-05-06T15:32:07.883Z,19.24
2018-05-06T15:34:36.600Z,20.16
2018-05-06T15:37:05.563Z,20.50
2018-05-06T15:39:33.751Z,20.83
2018-05-06T15:42:01.993Z,20.96
2018-05-06T15:44:30.760Z,21.35
2018-05-06T15:46:58.957Z,21.68
2018-05-06T15:49:27.176Z,22.30
2018-05-06T15:51:55.907Z,22.79
2018-05-06T15:54:24.079Z,22.35
2018-05-06T15:56:52.361Z,22.42
2018-05-06T15:59:21.224Z,22.74
2018-05-06T16:02:01.734Z,22.61
2018-05-06T16:04:30.033Z,23.10
2018-05-06T16:06:58.332Z,23.46
2018-05-06T16:09:26.926Z,23.74
2018-05-06T16:11:55.153Z,23.82
2018-05-06T16:14:23.459Z,24.19
2018-05-06T16:16:52.235Z,24.65
2018-05-06T16:19:20.459Z,25.06
2018-05-06T16:21:52.318Z,25.58
2018-05-06T16:24:20.541Z,25.65
2018-05-06T16:26:49.160Z,25.86
2018-05-06T16:29:17.736Z,25.76
2018-05-06T16:31:45.944Z,26.23
2018-05-06T16:34:14.299Z,26.46
2018-05-06T16:36:42.897Z,26.38
2018-05-06T16:39:11.113Z,26.47
2018-05-06T16:41:39.405Z,26.71
2018-05-06T16:44:08.021Z,26.93
2018-05-06T16:46:36.220Z,27.07
2018-05-06T16:49:04.579Z,27.02
2018-05-06T16:51:33.224Z,26.76
2018-05-06T16:54:01.457Z,27.03
2018-05-06T16:56:29.745Z,27.55
2018-05-06T16:58:58.486Z,27.72
2018-05-06T17:01:26.895Z,27.57
2018-05-06T17:03:55.105Z,27.78
2018-05-06T17:06:23.953Z,28.12
2018-05-06T17:08:53.032Z,28.31
2018-05-06T17:11:21.276Z,28.35
2018-05-06T17:13:50.154Z,28.62
2018-05-06T17:16:19.075Z,28.52
2018-05-06T17:18:48.162Z,28.46
2018-05-06T17:21:16.458Z,28.94
2018-05-06T17:23:47.088Z,29.33
2018-05-06T17:26:15.330Z,29.38
2018-05-06T17:28:44.288Z,29.39
2018-05-06T17:31:13.316Z,29.61
2018-05-06T17:33:41.570Z,29.79
2018-05-06T17:36:10.329Z,30.21
2018-05-06T17:38:39.305Z,30.11
2018-05-06T17:41:08.316Z,30.61
2018-05-06T17:43:36.539Z,30.39
2018-05-06T17:46:05.493Z,30.48
2018-05-06T17:48:34.233Z,30.80
2018-05-06T17:51:02.610Z,30.80
2018-05-06T17:53:30.811Z,30.72
2018-05-06T17:55:59.830Z,31.03
2018-05-06T17:58:28.840Z,31.12
2018-05-06T18:00:57.056Z,31.62
2018-05-06T18:03:25.890Z,31.89
2018-05-06T18:05:57.689Z,31.80
2018-05-06T18:08:26.567Z,31.51
2018-05-06T18:10:55.452Z,32.19
2018-05-06T18:13:24.129Z,32.38
2018-05-06T18:15:52.294Z,32.10
2018-05-06T18:18:21.204Z,32.33
2018-05-06T18:20:50.474Z,32.35
2018-05-06T18:23:19.153Z,32.43
2018-05-06T18:25:47.355Z,32.33
2018-05-06T18:28:16.203Z,32.70
2018-05-06T18:30:45.180Z,32.61
2018-05-06T18:33:14.173Z,32.93
2018-05-06T18:35:42.403Z,33.29
2018-05-06T18:38:11.225Z,33.24
2018-05-06T18:40:40.129Z,33.35
2018-05-06T18:43:09.156Z,33.51
2018-05-06T18:45:37.351Z,33.63
2018-05-06T18:48:06.270Z,33.81
2018-05-06T18:50:35.199Z,33.92
2018-05-06T18:53:04.205Z,34.13
2018-05-06T18:55:32.412Z,34.14
2018-05-06T18:58:01.267Z,34.30
2018-05-06T19:00:30.227Z,34.49
2018-05-06T19:02:59.135Z,34.57
2018-05-06T19:05:27.352Z,34.76
2018-05-06T19:07:56.261Z,34.87
2018-05-06T19:10:25.187Z,35.16
2018-05-06T19:12:54.152Z,35.24
2018-05-06T19:15:22.345Z,35.41
2018-05-06T19:17:51.214Z,35.56
2018-05-06T19:20:20.159Z,35.73
2018-05-06T19:22:49.121Z,35.93
2018-05-06T19:25:17.364Z,36.00
2018-05-06T19:27:46.221Z,36.03
2018-05-06T19:30:15.183Z,36.05
2018-05-06T19:32:44.296Z,36.09
2018-05-06T19:35:12.434Z,36.13
2018-05-06T19:37:41.284Z,36.01
2018-05-06T19:40:10.362Z,36.01
2018-05-06T19:42:39.273Z,35.91
2018-05-06T19:45:07.903Z,36.65
2018-05-06T19:47:36.303Z,36.08
2018-05-06T19:50:05.371Z,36.27
2018-05-06T19:52:34.309Z,35.90
2018-05-06T19:55:02.538Z,36.04
2018-05-06T19:57:31.341Z,36.33
2018-05-06T20:00:00.184Z,36.35
2018-05-06T20:02:29.176Z,36.76
2018-05-06T20:04:57.423Z,36.87
2018-05-06T20:07:26.284Z,36.81
2018-05-06T20:09:55.272Z,37.11
2018-05-06T20:12:24.317Z,37.10
2018-05-06T20:14:52.519Z,37.11
2018-05-06T20:17:21.384Z,37.40
2018-05-06T20:19:50.256Z,37.27
2018-05-06T20:22:18.490Z,37.35
2018-05-06T20:24:46.671Z,37.60
2018-05-06T20:27:16.774Z,37.65
2018-05-06T20:29:45.740Z,37.80
2018-05-06T20:32:14.462Z,38.03
2018-05-06T20:34:42.665Z,38.33
2018-05-06T20:37:10.864Z,38.53
2018-05-06T20:39:39.535Z,38.68
2018-05-06T20:42:07.743Z,38.77
2018-05-06T20:44:36.024Z,39.05
2018-05-06T20:47:04.699Z,39.14
2018-05-06T20:49:32.955Z,39.57
2018-05-06T20:52:01.219Z,39.84
2018-05-06T20:54:29.908Z,39.87
2018-05-06T20:56:58.097Z,40.02
2018-05-06T20:59:26.496Z,40.64
2018-05-06T21:01:55.229Z,41.26
2018-05-06T21:04:23.429Z,40.85
2018-05-06T21:06:51.638Z,40.76
2018-05-06T21:09:20.434Z,41.12
2018-05-06T21:11:48.846Z,41.07
2018-05-06T21:14:17.477Z,40.69
2018-05-06T21:16:46.113Z,40.78
2018-05-06T21:19:14.520Z,40.86
2018-05-06T21:21:43.099Z,41.63
2018-05-06T21:24:11.699Z,41.97
2018-05-06T21:26:39.914Z,41.60
2018-05-06T21:29:08.103Z,41.36
2018-05-06T21:35:15.875Z,43.01
2018-05-06T21:37:44.095Z,43.00
2018-05-06T21:40:12.263Z,43.99
2018-05-06T21:42:41.035Z,43.01
2018-05-06T21:45:09.889Z,43.40
2018-05-06T21:47:38.282Z,43.96
2018-05-06T21:50:06.737Z,43.45
2018-05-06T21:52:35.302Z,43.85
2018-05-06T21:55:03.512Z,45.13
2018-05-06T21:57:31.881Z,44.48
2018-05-06T22:00:00.093Z,44.78
2018-05-06T22:02:28.465Z,43.83
2018-05-06T22:04:57.114Z,43.67
2018-05-06T22:07:25.486Z,45.02
2018-05-06T22:09:53.670Z,44.99
2018-05-06T22:12:22.311Z,45.65
2018-05-06T22:14:50.512Z,44.94
2018-05-06T22:17:18.932Z,46.97
2018-05-06T22:19:47.553Z,44.98
2018-05-06T22:22:15.875Z,45.45
2018-05-06T22:24:44.095Z,44.23
2018-05-06T22:27:12.591Z,44.86
2018-05-06T22:29:41.186Z,46.43
2018-05-06T22:32:09.366Z,45.97
2018-05-06T22:34:37.840Z,46.14
2018-05-06T22:37:06.060Z,45.11
2018-05-06T22:39:34.459Z,46.34
2018-05-06T22:42:02.963Z,48.91
2018-05-06T22:44:31.160Z,45.27
2018-05-06T22:46:59.548Z,45.74
2018-05-06T22:49:28.314Z,46.18
2018-05-06T22:51:56.541Z,48.50
2018-05-06T22:54:24.799Z,47.76
2018-05-06T22:56:53.485Z,48.03
2018-05-06T22:59:21.718Z,46.09
2018-05-06T23:01:49.901Z,45.40
2018-05-06T23:04:18.549Z,46.21
2018-05-06T23:06:47.982Z,45.62
2018-05-06T23:09:16.195Z,45.49
2018-05-06T23:11:44.456Z,45.57
2018-05-06T23:14:13.158Z,45.35
2018-05-06T23:16:41.358Z,45.58
2018-05-06T23:19:09.610Z,45.53
2018-05-06T23:21:38.464Z,45.94
2018-05-06T23:24:06.660Z,46.16
2018-05-06T23:26:34.884Z,46.33
2018-05-06T23:29:03.625Z,46.42
2018-05-06T23:31:31.805Z,45.89
2018-05-06T23:34:00.143Z,46.03
2018-05-06T23:36:28.865Z,46.08
2018-05-06T23:38:57.220Z,46.50
2018-05-06T23:41:25.456Z,46.03
2018-05-06T23:43:54.035Z,46.64
2018-05-06T23:46:22.214Z,45.98
2018-05-06T23:48:50.428Z,45.92
2018-05-06T23:51:19.097Z,45.85
2018-05-06T23:53:47.300Z,45.96
2018-05-06T23:56:15.558Z,46.10
2018-05-06T23:58:44.361Z,45.70
